Terminal Aerodrome Forecast
Issued by NWS

Home | Current Version | Previous Version | Text Only | Print | Product List | Glossary On
Versions: 1 2 3 4 5 6 7 8 9 10 11 12 13 14 15 16 17 18 19 20 21 22 23 24 25 26 27 28 29 30 31
000
FTUS45 KCYS 261140
TAFRWL
TAF
KRWL 261140Z 2612/2712 05010KT P6SM VCSH SCT025 OVC050
     FM261800 02015G25KT 4SM -RASN SCT015 OVC035
     FM270100 05012KT 4SM BR OVC007=

USA.gov is the U.S. government's official web portal to all federal, state and local government web resources and services.